Time;durP1;ratioP1;P1;durP2;ratioP2;P2;SDS_P1;SDS_P2;PMS_P1;PMS_P2;Temp;Humidity;BMP_temperature;BMP_pressure;BME280_temperature;BME280_humidity;BME280_pressure;Samples;Min_cycle;Max_cycle;Signal;HPM_P1;HPM_P2
2023/01/25 00:00:53;;;;;;;7.73;5.70;;;;;;;;;;5038079;28;20041;-71
2023/01/25 00:03:19;;;;;;;7.90;5.40;;;;;;;;;;5036486;28;20060;-71
2023/01/25 00:05:45;;;;;;;8.80;5.70;;;;;;;;;;5037995;28;20558;-71
2023/01/25 00:08:11;;;;;;;9.20;6.43;;;;;;;;;;5038156;28;20079;-71
2023/01/25 00:10:37;;;;;;;8.70;6.00;;;;;;;;;;5037895;28;20072;-71
2023/01/25 00:13:03;;;;;;;8.13;5.57;;;;;;;;;;5037901;28;20503;-71
2023/01/25 00:15:30;;;;;;;9.77;6.23;;;;;;;;;;5037542;28;20043;-71
2023/01/25 00:17:56;;;;;;;8.07;5.83;;;;;;;;;;5037516;28;20099;-71
2023/01/25 00:20:22;;;;;;;8.80;6.30;;;;;;;;;;5038073;28;20033;-72
2023/01/25 00:22:48;;;;;;;8.83;6.23;;;;;;;;;;5038061;28;20394;-71
2023/01/25 00:25:14;;;;;;;8.30;6.47;;;;;;;;;;5036721;28;20136;-71
2023/01/25 00:27:40;;;;;;;8.93;5.60;;;;;;;;;;5037759;28;20332;-71
2023/01/25 00:30:06;;;;;;;8.73;6.20;;;;;;;;;;5037805;28;20059;-71
2023/01/25 00:32:41;;;;;;;11.60;6.43;;;;;;;;;;5038027;28;20030;-71
2023/01/25 00:35:10;;;;;;;9.87;6.60;;;;;;;;;;5037841;28;20034;-71
2023/01/25 00:37:37;;;;;;;9.67;6.53;;;;;;;;;;5034520;28;20038;-71
2023/01/25 00:40:03;;;;;;;9.63;7.07;;;;;;;;;;5034659;28;20044;-71
2023/01/25 00:42:30;;;;;;;8.23;6.13;;;;;;;;;;5033264;28;20037;-71
2023/01/25 00:44:56;;;;;;;9.80;6.67;;;;;;;;;;5034164;28;20123;-71
2023/01/25 00:47:22;;;;;;;10.70;6.87;;;;;;;;;;5033261;28;20030;-70
2023/01/25 00:49:49;;;;;;;11.53;6.87;;;;;;;;;;5034188;28;20115;-71
2023/01/25 00:52:15;;;;;;;9.73;6.63;;;;;;;;;;5033245;28;20121;-71
2023/01/25 00:54:41;;;;;;;12.77;7.33;;;;;;;;;;5033474;28;20033;-71
2023/01/25 00:57:07;;;;;;;9.50;6.53;;;;;;;;;;5032400;28;20045;-71
2023/01/25 00:59:33;;;;;;;9.97;6.67;;;;;;;;;;5033024;28;20450;-71
2023/01/25 01:02:00;;;;;;;8.40;5.93;;;;;;;;;;5032914;28;20110;-71
2023/01/25 01:04:26;;;;;;;11.20;6.93;;;;;;;;;;5033850;28;20033;-71
2023/01/25 01:06:53;;;;;;;9.17;7.07;;;;;;;;;;5032815;28;20029;-71
2023/01/25 01:09:20;;;;;;;10.67;7.17;;;;;;;;;;5033222;28;20253;-71
2023/01/25 01:11:46;;;;;;;10.03;6.73;;;;;;;;;;5032814;28;20061;-71
2023/01/25 01:14:12;;;;;;;8.77;6.57;;;;;;;;;;5032833;28;20048;-71
2023/01/25 01:16:38;;;;;;;8.97;6.60;;;;;;;;;;5032103;28;20513;-71
2023/01/25 01:19:05;;;;;;;8.70;6.27;;;;;;;;;;5033339;28;20041;-71
2023/01/25 01:21:31;;;;;;;8.20;6.07;;;;;;;;;;5033804;28;20032;-70
2023/01/25 01:23:57;;;;;;;10.47;7.07;;;;;;;;;;5032867;28;20045;-71
2023/01/25 01:26:23;;;;;;;10.87;7.13;;;;;;;;;;5033015;28;20034;-71
2023/01/25 01:28:49;;;;;;;9.33;6.10;;;;;;;;;;5032672;28;20072;-71
2023/01/25 01:31:24;;;;;;;10.23;6.90;;;;;;;;;;5033609;28;20545;-71
2023/01/25 01:33:51;;;;;;;14.60;7.83;;;;;;;;;;5032092;28;20033;-71
2023/01/25 01:36:18;;;;;;;9.20;6.67;;;;;;;;;;5033091;28;20499;-71
2023/01/25 01:38:45;;;;;;;9.93;7.53;;;;;;;;;;5032353;28;20055;-71
2023/01/25 01:41:11;;;;;;;9.93;7.57;;;;;;;;;;5031950;28;20044;-71
2023/01/25 01:43:38;;;;;;;7.20;5.37;;;;;;;;;;5031820;28;20052;-70
2023/01/25 01:46:09;;;;;;;7.23;5.33;;;;;;;;;;5032683;28;20198;-70
2023/01/25 01:48:38;;;;;;;8.97;6.23;;;;;;;;;;5032243;28;20080;-70
2023/01/25 01:51:23;;;;;;;9.57;6.43;;;;;;;;;;5032305;28;20037;-70
2023/01/25 01:54:15;;;;;;;9.43;6.50;;;;;;;;;;5033730;28;20042;-71
2023/01/25 01:56:59;;;;;;;8.80;6.60;;;;;;;;;;5032572;28;20526;-70
2023/01/25 01:59:27;;;;;;;10.37;7.20;;;;;;;;;;5031127;28;20076;-71
2023/01/25 02:01:54;;;;;;;10.13;7.03;;;;;;;;;;5030590;28;20030;-70
2023/01/25 02:04:21;;;;;;;10.83;7.50;;;;;;;;;;5031167;28;20506;-71
2023/01/25 02:06:54;;;;;;;11.80;7.43;;;;;;;;;;5032764;28;20034;-71
2023/01/25 02:09:22;;;;;;;9.88;7.30;;;;;;;;;;5032895;28;20034;-71
2023/01/25 02:11:49;;;;;;;9.53;7.03;;;;;;;;;;5033115;28;20034;-71
2023/01/25 02:14:16;;;;;;;12.67;7.10;;;;;;;;;;5032540;28;20021;-71
2023/01/25 02:16:43;;;;;;;10.23;7.50;;;;;;;;;;5032813;28;20034;-71
2023/01/25 02:19:12;;;;;;;17.20;8.67;;;;;;;;;;5033196;28;20030;-71
2023/01/25 02:21:40;;;;;;;10.60;7.20;;;;;;;;;;5032489;28;20092;-71
2023/01/25 02:24:25;;;;;;;11.30;7.50;;;;;;;;;;5031871;28;20491;-71
2023/01/25 02:26:51;;;;;;;11.50;7.37;;;;;;;;;;5033135;28;20045;-71
2023/01/25 02:29:19;;;;;;;11.43;7.77;;;;;;;;;;5032561;28;20033;-70
2023/01/25 02:31:48;;;;;;;9.77;6.50;;;;;;;;;;5032342;28;20037;-71
2023/01/25 02:34:14;;;;;;;10.27;6.73;;;;;;;;;;5032642;28;20021;-71
2023/01/25 02:36:40;;;;;;;9.70;6.87;;;;;;;;;;5032425;28;20091;-71
2023/01/25 02:39:08;;;;;;;12.07;6.73;;;;;;;;;;5032719;28;20575;-70
2023/01/25 02:41:38;;;;;;;9.33;6.23;;;;;;;;;;5032680;28;20606;-72
2023/01/25 02:44:07;;;;;;;13.53;6.80;;;;;;;;;;5032411;28;20045;-71
2023/01/25 02:46:34;;;;;;;10.37;7.03;;;;;;;;;;5032236;28;20064;-71
2023/01/25 02:49:01;;;;;;;10.50;7.07;;;;;;;;;;5031917;28;20040;-72
2023/01/25 02:51:28;;;;;;;10.17;6.30;;;;;;;;;;5032194;28;20030;-71
2023/01/25 02:53:55;;;;;;;9.37;5.97;;;;;;;;;;5032327;28;20029;-71
2023/01/25 02:56:21;;;;;;;9.03;6.30;;;;;;;;;;5032039;28;20038;-71
2023/01/25 02:58:47;;;;;;;10.50;6.50;;;;;;;;;;5032142;28;20073;-71
2023/01/25 03:01:14;;;;;;;8.10;6.00;;;;;;;;;;5032011;28;20041;-71
2023/01/25 03:03:40;;;;;;;12.80;6.73;;;;;;;;;;5032130;28;20049;-72
2023/01/25 03:06:07;;;;;;;9.47;6.20;;;;;;;;;;5030901;28;20033;-71
2023/01/25 03:08:33;;;;;;;10.00;6.10;;;;;;;;;;5032161;28;20040;-72
2023/01/25 03:11:00;;;;;;;8.57;6.17;;;;;;;;;;5032254;28;20041;-70
2023/01/25 03:13:26;;;;;;;9.80;6.13;;;;;;;;;;5032109;28;20049;-72
2023/01/25 03:15:58;;;;;;;10.20;6.30;;;;;;;;;;5030542;28;20030;-72
2023/01/25 03:18:24;;;;;;;8.33;6.10;;;;;;;;;;5031548;28;20041;-71
2023/01/25 03:20:50;;;;;;;9.10;6.13;;;;;;;;;;5031810;28;20040;-72
2023/01/25 03:23:16;;;;;;;7.60;5.77;;;;;;;;;;5032001;28;20030;-71
2023/01/25 03:25:42;;;;;;;9.50;6.03;;;;;;;;;;5032021;28;20099;-71
2023/01/25 03:28:08;;;;;;;9.13;6.00;;;;;;;;;;5030903;28;20033;-72
2023/01/25 03:30:34;;;;;;;8.67;6.40;;;;;;;;;;5031885;28;20037;-72
2023/01/25 03:33:00;;;;;;;9.07;6.20;;;;;;;;;;5032127;28;20037;-71
2023/01/25 03:35:26;;;;;;;8.53;6.27;;;;;;;;;;5031757;28;20033;-72
2023/01/25 03:37:52;;;;;;;9.43;5.73;;;;;;;;;;5032097;28;20038;-71
2023/01/25 03:40:18;;;;;;;9.33;5.87;;;;;;;;;;5029976;28;20034;-71
2023/01/25 03:42:44;;;;;;;10.47;6.37;;;;;;;;;;5032079;28;20163;-71
2023/01/25 03:45:13;;;;;;;8.13;5.63;;;;;;;;;;5030247;28;20045;-71
2023/01/25 03:47:39;;;;;;;10.97;6.23;;;;;;;;;;5031878;28;20494;-71
2023/01/25 03:50:06;;;;;;;7.80;5.90;;;;;;;;;;5031700;28;20034;-72
2023/01/25 03:53:27;;;;;;;8.20;5.50;;;;;;;;;;5031958;28;20041;-71
2023/01/25 03:55:58;;;;;;;8.50;5.80;;;;;;;;;;5028242;28;20423;-72
2023/01/25 03:58:24;;;;;;;7.50;5.23;;;;;;;;;;5026964;28;20136;-72
2023/01/25 04:00:50;;;;;;;8.10;5.80;;;;;;;;;;5028910;28;20510;-71
2023/01/25 04:03:18;;;;;;;8.70;5.90;;;;;;;;;;5029967;28;20529;-71
2023/01/25 04:05:44;;;;;;;8.30;6.17;;;;;;;;;;5029725;28;20033;-71
2023/01/25 04:08:10;;;;;;;8.70;5.60;;;;;;;;;;5030212;28;20030;-72
2023/01/25 04:10:36;;;;;;;9.60;6.30;;;;;;;;;;5029880;28;20040;-71
2023/01/25 04:13:02;;;;;;;9.47;6.30;;;;;;;;;;5030647;28;20033;-71
2023/01/25 04:15:28;;;;;;;10.33;6.33;;;;;;;;;;5033419;28;20498;-71
2023/01/25 04:17:55;;;;;;;8.93;6.10;;;;;;;;;;5033321;28;20034;-71
2023/01/25 04:20:21;;;;;;;9.57;5.60;;;;;;;;;;5032570;28;20033;-72
2023/01/25 04:22:47;;;;;;;8.53;5.77;;;;;;;;;;5032581;28;20467;-71
2023/01/25 04:25:13;;;;;;;8.23;6.20;;;;;;;;;;5032927;28;20128;-71
2023/01/25 04:27:39;;;;;;;11.10;6.23;;;;;;;;;;5033162;28;20140;-72
2023/01/25 04:30:06;;;;;;;10.27;6.07;;;;;;;;;;5033033;28;20033;-71
2023/01/25 04:32:34;;;;;;;10.33;5.60;;;;;;;;;;5033611;28;20033;-72
2023/01/25 04:35:00;;;;;;;9.30;6.30;;;;;;;;;;5033014;28;20079;-71
2023/01/25 04:37:26;;;;;;;8.47;5.43;;;;;;;;;;5033759;28;20038;-71
2023/01/25 04:39:52;;;;;;;10.70;5.70;;;;;;;;;;5033059;28;20065;-71
2023/01/25 04:42:18;;;;;;;9.60;6.03;;;;;;;;;;5033144;28;20048;-72
2023/01/25 04:44:44;;;;;;;10.50;6.87;;;;;;;;;;5032441;28;20541;-71
2023/01/25 04:47:10;;;;;;;8.80;6.30;;;;;;;;;;5034199;28;20041;-71
2023/01/25 04:49:36;;;;;;;8.97;6.20;;;;;;;;;;5034347;28;20433;-71
2023/01/25 04:52:03;;;;;;;9.20;6.10;;;;;;;;;;5032768;28;20064;-71
2023/01/25 04:54:29;;;;;;;9.53;5.70;;;;;;;;;;5032931;28;20034;-71
2023/01/25 04:56:55;;;;;;;8.87;6.17;;;;;;;;;;5034178;28;20494;-71
2023/01/25 04:59:21;;;;;;;9.73;5.77;;;;;;;;;;5034090;28;20049;-71
2023/01/25 05:01:47;;;;;;;8.93;5.93;;;;;;;;;;5034471;28;20034;-72
2023/01/25 05:04:13;;;;;;;8.70;5.50;;;;;;;;;;5034090;28;20052;-71
2023/01/25 05:06:39;;;;;;;10.27;5.83;;;;;;;;;;5033987;28;20037;-71
2023/01/25 05:09:06;;;;;;;9.63;6.00;;;;;;;;;;5033988;28;20045;-71
2023/01/25 05:11:32;;;;;;;7.57;5.60;;;;;;;;;;5034036;28;20526;-71
2023/01/25 05:13:58;;;;;;;8.77;6.20;;;;;;;;;;5032849;28;20079;-71
2023/01/25 05:16:24;;;;;;;9.03;6.10;;;;;;;;;;5033761;28;20033;-71
2023/01/25 05:18:50;;;;;;;10.47;5.73;;;;;;;;;;5033824;28;20049;-71
2023/01/25 05:24:21;;;;;;;8.10;6.20;;;;;;;;;;4991847;28;20105;-71
2023/01/25 05:27:06;;;;;;;9.63;5.83;;;;;;;;;;4992299;28;20568;-71
2023/01/25 05:29:37;;;;;;;11.00;6.77;;;;;;;;;;5008358;28;20037;-72
2023/01/25 05:32:04;;;;;;;12.20;6.80;;;;;;;;;;5033390;28;20111;-71
2023/01/25 05:34:30;;;;;;;10.47;6.23;;;;;;;;;;5033664;28;20508;-72
2023/01/25 05:36:57;;;;;;;9.40;6.63;;;;;;;;;;5033739;28;20033;-72
2023/01/25 05:39:23;;;;;;;8.90;6.20;;;;;;;;;;5033400;28;20037;-72
2023/01/25 05:41:49;;;;;;;12.30;6.83;;;;;;;;;;5033349;28;20030;-71
2023/01/25 05:44:15;;;;;;;10.07;6.53;;;;;;;;;;5033251;28;20085;-71
2023/01/25 05:46:41;;;;;;;10.27;6.27;;;;;;;;;;5033111;28;20040;-72
2023/01/25 05:49:08;;;;;;;9.73;6.40;;;;;;;;;;5033353;28;20037;-72
2023/01/25 05:51:34;;;;;;;12.50;6.70;;;;;;;;;;5031963;28;20494;-71
2023/01/25 05:54:01;;;;;;;13.20;6.73;;;;;;;;;;5033081;28;20047;-72
2023/01/25 05:56:27;;;;;;;11.77;7.13;;;;;;;;;;5033246;28;20037;-72
2023/01/25 05:58:57;;;;;;;9.07;5.93;;;;;;;;;;5031712;28;20053;-71
2023/01/25 06:01:23;;;;;;;11.17;6.20;;;;;;;;;;5031648;28;20399;-71
2023/01/25 06:03:49;;;;;;;9.53;6.13;;;;;;;;;;5033165;28;20053;-71
2023/01/25 06:06:16;;;;;;;10.50;6.00;;;;;;;;;;5032982;28;20033;-72
2023/01/25 06:08:42;;;;;;;8.43;5.80;;;;;;;;;;5031379;28;20037;-72
2023/01/25 06:11:09;;;;;;;8.53;5.47;;;;;;;;;;5032809;28;20117;-71
2023/01/25 06:13:36;;;;;;;11.37;6.37;;;;;;;;;;5032860;28;20063;-72
2023/01/25 06:16:03;;;;;;;8.83;6.40;;;;;;;;;;5032757;28;20029;-71
2023/01/25 06:18:29;;;;;;;9.33;6.63;;;;;;;;;;5033362;28;20097;-71
2023/01/25 06:20:56;;;;;;;11.97;6.33;;;;;;;;;;5032689;28;20036;-71
2023/01/25 06:23:22;;;;;;;12.43;8.60;;;;;;;;;;5032587;28;20029;-72
2023/01/25 06:25:48;;;;;;;17.67;10.70;;;;;;;;;;5032520;28;20150;-71
2023/01/25 06:28:14;;;;;;;9.77;7.03;;;;;;;;;;5030890;28;20128;-72
2023/01/25 06:30:41;;;;;;;12.80;6.87;;;;;;;;;;5031406;28;20041;-71
2023/01/25 06:33:07;;;;;;;9.73;6.03;;;;;;;;;;5032344;28;20041;-71
2023/01/25 06:35:33;;;;;;;11.40;6.40;;;;;;;;;;5031612;28;20113;-71
2023/01/25 06:38:00;;;;;;;8.83;6.57;;;;;;;;;;5032514;28;20069;-72
2023/01/25 06:40:27;;;;;;;12.30;7.70;;;;;;;;;;5032224;28;20549;-71
2023/01/25 06:42:53;;;;;;;10.90;6.83;;;;;;;;;;5032131;28;20475;-71
2023/01/25 06:45:20;;;;;;;13.13;6.87;;;;;;;;;;5031922;28;20045;-71
2023/01/25 06:47:48;;;;;;;10.97;7.90;;;;;;;;;;5031888;28;20068;-71
2023/01/25 06:50:14;;;;;;;16.37;11.07;;;;;;;;;;5031778;28;20120;-72
2023/01/25 06:52:40;;;;;;;19.07;10.67;;;;;;;;;;5031578;28;20072;-72
2023/01/25 06:55:08;;;;;;;14.33;9.63;;;;;;;;;;5031760;28;20026;-72
2023/01/25 06:57:35;;;;;;;12.50;8.67;;;;;;;;;;5030555;28;20171;-70
2023/01/25 07:00:01;;;;;;;12.23;8.70;;;;;;;;;;5030300;28;20044;-72
2023/01/25 07:02:27;;;;;;;13.83;8.67;;;;;;;;;;5028675;28;20036;-72
2023/01/25 07:04:53;;;;;;;14.60;10.27;;;;;;;;;;5029113;28;20418;-73
2023/01/25 07:07:19;;;;;;;18.73;10.40;;;;;;;;;;5030518;28;20037;-71
2023/01/25 07:09:45;;;;;;;12.20;9.20;;;;;;;;;;5029875;28;20307;-71
2023/01/25 07:12:11;;;;;;;11.80;8.60;;;;;;;;;;5029811;28;20464;-71
2023/01/25 07:14:37;;;;;;;10.53;7.83;;;;;;;;;;5030234;28;20041;-68
2023/01/25 07:17:03;;;;;;;36.00;8.50;;;;;;;;;;5030197;28;20112;-71
2023/01/25 07:19:30;;;;;;;11.93;7.50;;;;;;;;;;5030894;28;20450;-73
2023/01/25 07:21:56;;;;;;;11.40;6.57;;;;;;;;;;5030115;28;20108;-73
2023/01/25 07:24:25;;;;;;;11.07;6.63;;;;;;;;;;5030717;28;20045;-73
2023/01/25 07:26:52;;;;;;;10.57;6.50;;;;;;;;;;5031903;28;20030;-73
2023/01/25 07:29:18;;;;;;;12.27;6.73;;;;;;;;;;5031182;28;20503;-72
2023/01/25 07:31:44;;;;;;;8.60;5.80;;;;;;;;;;5032231;28;20034;-72
2023/01/25 07:34:12;;;;;;;6.63;4.77;;;;;;;;;;5031128;28;20032;-72
2023/01/25 07:36:38;;;;;;;5.47;3.60;;;;;;;;;;5031082;28;20033;-71
2023/01/25 07:39:04;;;;;;;7.10;4.73;;;;;;;;;;5031657;28;20395;-72
2023/01/25 07:41:34;;;;;;;7.30;4.60;;;;;;;;;;5031078;28;20088;-71
2023/01/25 07:44:00;;;;;;;13.40;5.23;;;;;;;;;;5032169;28;20483;-73
2023/01/25 07:46:26;;;;;;;6.37;4.37;;;;;;;;;;5032636;28;20108;-70
2023/01/25 07:48:53;;;;;;;7.13;4.40;;;;;;;;;;5036216;28;20044;-69
2023/01/25 07:51:23;;;;;;;7.97;4.57;;;;;;;;;;5035061;28;20479;-68
2023/01/25 07:53:50;;;;;;;7.30;4.80;;;;;;;;;;5034831;28;20065;-69
2023/01/25 07:56:18;;;;;;;6.43;4.60;;;;;;;;;;5035963;28;20048;-72
2023/01/25 07:58:44;;;;;;;6.73;4.50;;;;;;;;;;5034481;28;20053;-70
2023/01/25 08:01:20;;;;;;;7.30;4.83;;;;;;;;;;5034828;28;20045;-69
2023/01/25 08:03:46;;;;;;;6.07;3.90;;;;;;;;;;5035934;28;20048;-70
2023/01/25 08:06:13;;;;;;;6.53;4.27;;;;;;;;;;5035957;28;20029;-70
2023/01/25 08:08:41;;;;;;;6.53;4.53;;;;;;;;;;5035669;28;20034;-71
2023/01/25 08:11:09;;;;;;;5.83;4.03;;;;;;;;;;5035998;28;20057;-70
2023/01/25 08:13:35;;;;;;;7.37;5.10;;;;;;;;;;5034511;28;20025;-71
2023/01/25 08:16:01;;;;;;;13.77;4.80;;;;;;;;;;5036061;28;20036;-70
2023/01/25 08:18:27;;;;;;;11.77;4.90;;;;;;;;;;5034824;28;20041;-71
2023/01/25 08:20:53;;;;;;;6.37;4.40;;;;;;;;;;5035688;28;20373;-71
2023/01/25 08:23:19;;;;;;;5.30;3.83;;;;;;;;;;5053012;28;20041;-70
2023/01/25 08:25:45;;;;;;;7.83;4.40;;;;;;;;;;5055487;28;20071;-71
2023/01/25 08:28:11;;;;;;;11.77;4.10;;;;;;;;;;5055840;28;20037;-70
2023/01/25 08:30:37;;;;;;;8.53;4.70;;;;;;;;;;5055238;28;20044;-71
2023/01/25 08:33:03;;;;;;;7.93;4.20;;;;;;;;;;5055321;28;20036;-71
2023/01/25 08:35:30;;;;;;;5.67;3.93;;;;;;;;;;5054329;28;20483;-71
2023/01/25 08:37:56;;;;;;;5.93;4.27;;;;;;;;;;5053864;28;20033;-70
2023/01/25 08:40:22;;;;;;;7.10;4.23;;;;;;;;;;5055596;28;20043;-71
2023/01/25 08:42:48;;;;;;;7.03;4.17;;;;;;;;;;5053671;28;20418;-71
2023/01/25 08:45:14;;;;;;;5.40;3.90;;;;;;;;;;5055493;28;20103;-71
2023/01/25 08:47:40;;;;;;;9.03;4.20;;;;;;;;;;5054180;28;20036;-71
2023/01/25 08:50:06;;;;;;;9.57;4.63;;;;;;;;;;5055089;28;20033;-71
2023/01/25 08:52:32;;;;;;;5.93;4.03;;;;;;;;;;5055325;28;20072;-71
2023/01/25 08:54:59;;;;;;;8.43;4.70;;;;;;;;;;5055393;28;20467;-71
2023/01/25 08:57:25;;;;;;;7.53;4.53;;;;;;;;;;5055219;28;20059;-71
2023/01/25 08:59:51;;;;;;;8.50;4.43;;;;;;;;;;5054479;28;20049;-71
2023/01/25 09:02:20;;;;;;;6.53;4.50;;;;;;;;;;5055370;28;20111;-71
2023/01/25 09:04:46;;;;;;;6.40;4.27;;;;;;;;;;5055053;28;20044;-70
2023/01/25 09:07:12;;;;;;;8.33;4.03;;;;;;;;;;5055214;28;20029;-71
2023/01/25 09:09:38;;;;;;;5.07;3.70;;;;;;;;;;5055094;28;20099;-71
2023/01/25 09:12:04;;;;;;;5.60;3.60;;;;;;;;;;5054995;28;20029;-71
2023/01/25 09:14:30;;;;;;;4.43;3.13;;;;;;;;;;5054815;28;20072;-70
2023/01/25 09:16:57;;;;;;;5.43;3.30;;;;;;;;;;5054520;28;20029;-70
2023/01/25 09:19:23;;;;;;;8.43;3.73;;;;;;;;;;5053247;28;20033;-70
2023/01/25 09:21:49;;;;;;;5.00;3.57;;;;;;;;;;5054710;28;20029;-71
2023/01/25 09:24:15;;;;;;;9.13;3.70;;;;;;;;;;5054375;28;20048;-70
2023/01/25 09:26:42;;;;;;;5.37;3.33;;;;;;;;;;5054712;28;20026;-71
2023/01/25 09:29:10;;;;;;;9.13;3.60;;;;;;;;;;5054639;28;20037;-71
2023/01/25 09:31:38;;;;;;;7.97;3.30;;;;;;;;;;5054635;28;20044;-70
2023/01/25 09:34:05;;;;;;;4.43;3.17;;;;;;;;;;5053188;28;20026;-71
2023/01/25 09:36:31;;;;;;;5.30;3.63;;;;;;;;;;5054492;28;20029;-70
2023/01/25 09:38:57;;;;;;;5.10;3.30;;;;;;;;;;5053881;28;20036;-70
2023/01/25 09:41:38;;;;;;;5.10;3.50;;;;;;;;;;5054879;28;20437;-70
2023/01/25 09:44:23;;;;;;;6.07;3.70;;;;;;;;;;5054416;28;20478;-71
2023/01/25 09:46:57;;;;;;;11.80;3.30;;;;;;;;;;5054306;28;20515;-71
2023/01/25 09:49:42;;;;;;;7.07;3.27;;;;;;;;;;5054072;28;20036;-71
2023/01/25 09:52:20;;;;;;;6.00;3.73;;;;;;;;;;5052600;28;20485;-71
2023/01/25 09:54:47;;;;;;;5.77;3.40;;;;;;;;;;5053786;28;20033;-71
2023/01/25 09:57:18;;;;;;;7.30;3.17;;;;;;;;;;5054181;28;20502;-71
2023/01/25 09:59:46;;;;;;;5.07;3.53;;;;;;;;;;5053624;28;20498;-70
2023/01/25 10:02:15;;;;;;;6.17;3.40;;;;;;;;;;5053844;28;20060;-71
2023/01/25 10:04:43;;;;;;;4.63;3.23;;;;;;;;;;5054141;28;20072;-71
2023/01/25 10:07:18;;;;;;;7.50;3.63;;;;;;;;;;5053949;28;20033;-71
2023/01/25 10:09:52;;;;;;;7.03;3.70;;;;;;;;;;5053030;28;20033;-71
2023/01/25 10:12:20;;;;;;;4.53;3.30;;;;;;;;;;5053826;28;20029;-71
2023/01/25 10:14:46;;;;;;;5.10;2.93;;;;;;;;;;5053975;28;20056;-71
2023/01/25 10:17:25;;;;;;;5.03;3.17;;;;;;;;;;5053896;28;20056;-71
2023/01/25 10:19:54;;;;;;;9.27;3.93;;;;;;;;;;5053573;28;20025;-71
2023/01/25 10:22:21;;;;;;;7.23;4.00;;;;;;;;;;5053759;28;20033;-70
2023/01/25 10:25:06;;;;;;;5.63;3.80;;;;;;;;;;5053510;28;20502;-71
2023/01/25 10:27:41;;;;;;;9.03;3.47;;;;;;;;;;5053250;28;20040;-71
2023/01/25 10:30:23;;;;;;;5.77;3.73;;;;;;;;;;5053153;28;20028;-71
2023/01/25 10:32:51;;;;;;;7.30;4.30;;;;;;;;;;5052551;28;20094;-70
2023/01/25 10:35:18;;;;;;;8.30;3.90;;;;;;;;;;5042288;28;20037;-71
2023/01/25 10:37:45;;;;;;;9.57;3.57;;;;;;;;;;5039268;28;20030;-70
2023/01/25 10:40:11;;;;;;;6.03;3.80;;;;;;;;;;5052010;28;20033;-70
2023/01/25 10:42:39;;;;;;;9.00;3.93;;;;;;;;;;5051711;28;20041;-71
2023/01/25 10:45:11;;;;;;;7.37;3.73;;;;;;;;;;5052776;28;20056;-71
2023/01/25 10:47:40;;;;;;;6.78;4.20;;;;;;;;;;5052816;28;20032;-71
2023/01/25 10:50:07;;;;;;;6.10;4.00;;;;;;;;;;5052826;28;20029;-70
2023/01/25 10:52:36;;;;;;;8.37;3.70;;;;;;;;;;5052793;28;20044;-71
2023/01/25 10:55:16;;;;;;;6.40;3.80;;;;;;;;;;5052472;28;20116;-70
2023/01/25 10:57:43;;;;;;;5.87;3.77;;;;;;;;;;5052700;28;20029;-70
2023/01/25 11:00:31;;;;;;;5.57;3.90;;;;;;;;;;5051556;28;20032;-71
2023/01/25 11:02:57;;;;;;;8.47;3.70;;;;;;;;;;5052562;28;20037;-71
2023/01/25 11:05:23;;;;;;;5.50;3.80;;;;;;;;;;5052494;28;20110;-70
2023/01/25 11:07:49;;;;;;;7.50;3.87;;;;;;;;;;5052216;28;20044;-71
2023/01/25 11:10:33;;;;;;;8.13;4.43;;;;;;;;;;5052571;28;20041;-71
2023/01/25 11:13:15;;;;;;;5.93;3.97;;;;;;;;;;5051086;28;20039;-71
2023/01/25 11:15:45;;;;;;;5.10;3.87;;;;;;;;;;5052311;28;20063;-70
2023/01/25 11:18:14;;;;;;;7.17;4.07;;;;;;;;;;5052326;28;20036;-71
2023/01/25 11:20:40;;;;;;;8.30;4.00;;;;;;;;;;5052182;28;20025;-71
2023/01/25 11:23:21;;;;;;;4.97;3.87;;;;;;;;;;5051770;28;20028;-71
2023/01/25 11:25:47;;;;;;;9.00;3.63;;;;;;;;;;5049234;28;20095;-71
2023/01/25 11:28:18;;;;;;;5.93;4.13;;;;;;;;;;5052486;28;20033;-71
2023/01/25 11:30:44;;;;;;;9.70;3.70;;;;;;;;;;5050908;28;20079;-71
2023/01/25 11:33:11;;;;;;;4.90;3.50;;;;;;;;;;5051954;28;20109;-71
2023/01/25 11:35:40;;;;;;;11.30;4.03;;;;;;;;;;5052147;28;20061;-70
2023/01/25 11:38:14;;;;;;;5.03;3.40;;;;;;;;;;5047055;28;20580;-71
2023/01/25 11:40:59;;;;;;;4.87;3.57;;;;;;;;;;5052029;28;20494;-71
2023/01/25 11:43:37;;;;;;;7.67;4.10;;;;;;;;;;5052434;28;20083;-71
2023/01/25 11:46:12;;;;;;;6.53;4.40;;;;;;;;;;5052250;28;20033;-71
2023/01/25 11:48:57;;;;;;;6.07;4.43;;;;;;;;;;5052413;28;20030;-71
2023/01/25 11:51:23;;;;;;;6.77;4.27;;;;;;;;;;5051107;28;20044;-71
2023/01/25 11:53:55;;;;;;;6.70;4.50;;;;;;;;;;5050075;28;20029;-71
2023/01/25 11:56:39;;;;;;;5.70;4.37;;;;;;;;;;5049631;28;20033;-71
2023/01/25 11:59:11;;;;;;;6.57;4.20;;;;;;;;;;5051444;28;20041;-71
2023/01/25 12:01:46;;;;;;;8.30;4.32;;;;;;;;;;5051565;28;20082;-71
2023/01/25 12:04:34;;;;;;;4.45;3.50;;;;;;;;;;5051468;28;20095;-71
2023/01/25 12:07:05;;;;;;;5.60;3.90;;;;;;;;;;5051631;28;20037;-71
2023/01/25 12:09:35;;;;;;;5.93;4.13;;;;;;;;;;5052214;28;20033;-70
2023/01/25 12:12:01;;;;;;;4.85;3.63;;;;;;;;;;5051578;28;20037;-71
2023/01/25 12:14:36;;;;;;;7.55;4.55;;;;;;;;;;5052194;28;20032;-71
2023/01/25 12:17:11;;;;;;;13.07;5.17;;;;;;;;;;5052157;28;20426;-71
2023/01/25 12:19:37;;;;;;;6.10;4.10;;;;;;;;;;5049259;28;20037;-71
2023/01/25 12:22:36;;;;;;;5.20;4.18;;;;;;;;;;5049321;28;20112;-71
2023/01/25 12:25:37;;;;;;;5.60;4.00;;;;;;;;;;5016011;28;20056;-71
2023/01/25 12:28:03;;;;;;;7.38;4.32;;;;;;;;;;5009369;28;20065;-71
2023/01/25 12:30:38;;;;;;;5.45;4.00;;;;;;;;;;5043291;28;20103;-71
2023/01/25 12:33:17;;;;;;;5.20;3.92;;;;;;;;;;5051757;28;20440;-71
2023/01/25 12:35:46;;;;;;;6.47;4.38;;;;;;;;;;5055592;28;20028;-71
2023/01/25 12:38:19;;;;;;;5.93;3.92;;;;;;;;;;5055529;28;20394;-71
2023/01/25 12:41:11;;;;;;;6.22;3.90;;;;;;;;;;5054894;28;20044;-71
2023/01/25 12:44:03;;;;;;;10.30;4.53;;;;;;;;;;5053591;28;20589;-71
2023/01/25 12:46:46;;;;;;;5.18;3.65;;;;;;;;;;5031194;28;20026;-71
2023/01/25 12:49:21;;;;;;;5.97;4.10;;;;;;;;;;5054915;28;20490;-70
2023/01/25 12:51:48;;;;;;;6.20;4.30;;;;;;;;;;5055267;28;20033;-70
2023/01/25 12:54:34;;;;;;;6.35;4.35;;;;;;;;;;5055278;28;20117;-71
2023/01/25 12:57:08;;;;;;;20.00;4.55;;;;;;;;;;5054985;28;20112;-71
2023/01/25 12:59:52;;;;;;;6.63;4.10;;;;;;;;;;5054763;28;20049;-71
2023/01/25 13:02:18;;;;;;;7.85;4.13;;;;;;;;;;5055040;28;20036;-71
2023/01/25 13:04:47;;;;;;;5.15;3.97;;;;;;;;;;5054210;28;20106;-71
2023/01/25 13:07:20;;;;;;;6.20;4.60;;;;;;;;;;5054598;28;20053;-71
2023/01/25 13:09:52;;;;;;;6.85;3.85;;;;;;;;;;5054870;28;20112;-71
2023/01/25 13:12:18;;;;;;;6.28;4.40;;;;;;;;;;5053536;28;20111;-71
2023/01/25 13:14:44;;;;;;;7.70;4.60;;;;;;;;;;5052133;28;20558;-71
2023/01/25 13:17:31;;;;;;;6.93;4.28;;;;;;;;;;5052258;28;20513;-71
2023/01/25 13:19:57;;;;;;;9.25;4.28;;;;;;;;;;5054207;28;20509;-71
2023/01/25 13:22:41;;;;;;;7.55;4.38;;;;;;;;;;5054652;28;20029;-71
2023/01/25 13:25:18;;;;;;;5.57;4.32;;;;;;;;;;5054203;28;20582;-71
2023/01/25 13:27:44;;;;;;;5.70;4.07;;;;;;;;;;5054530;28;20029;-71
2023/01/25 13:30:25;;;;;;;8.27;4.38;;;;;;;;;;5054724;28;20060;-71
2023/01/25 13:32:53;;;;;;;6.25;4.18;;;;;;;;;;5054388;28;20397;-71
2023/01/25 13:35:39;;;;;;;6.82;4.03;;;;;;;;;;5054172;28;20029;-73
2023/01/25 13:38:24;;;;;;;7.28;3.58;;;;;;;;;;5054333;28;20033;-72
2023/01/25 13:41:03;;;;;;;8.55;4.32;;;;;;;;;;5054541;28;20029;-71
2023/01/25 13:43:29;;;;;;;6.03;4.30;;;;;;;;;;5052707;28;20039;-71
2023/01/25 13:45:55;;;;;;;6.38;4.47;;;;;;;;;;5053932;28;20087;-71
2023/01/25 13:48:22;;;;;;;5.63;3.90;;;;;;;;;;5054445;28;20033;-72
2023/01/25 13:50:48;;;;;;;7.13;4.20;;;;;;;;;;5050261;28;20068;-71
2023/01/25 13:53:14;;;;;;;6.22;3.90;;;;;;;;;;5051634;28;20402;-71
2023/01/25 13:55:41;;;;;;;6.03;4.25;;;;;;;;;;5053387;28;20487;-71
2023/01/25 13:58:16;;;;;;;7.95;4.25;;;;;;;;;;5038803;28;20088;-71
2023/01/25 14:00:55;;;;;;;5.55;4.35;;;;;;;;;;5034138;28;20029;-71
2023/01/25 14:03:33;;;;;;;6.70;4.28;;;;;;;;;;5033773;28;20099;-71
2023/01/25 14:06:01;;;;;;;6.18;4.00;;;;;;;;;;5033774;28;20091;-71
2023/01/25 14:08:27;;;;;;;6.20;4.38;;;;;;;;;;5033948;28;20029;-71
2023/01/25 14:10:54;;;;;;;9.32;4.82;;;;;;;;;;5033650;28;20033;-71
2023/01/25 14:13:20;;;;;;;6.30;4.60;;;;;;;;;;5033514;28;20084;-71
2023/01/25 14:15:57;;;;;;;8.05;4.40;;;;;;;;;;5033747;28;20033;-71
2023/01/25 14:18:33;;;;;;;7.57;4.70;;;;;;;;;;5032257;28;20124;-71
2023/01/25 14:21:18;;;;;;;6.60;4.47;;;;;;;;;;5032219;28;20121;-71
2023/01/25 14:23:44;;;;;;;5.77;4.30;;;;;;;;;;5033674;28;20044;-71
2023/01/25 14:26:40;;;;;;;7.10;4.97;;;;;;;;;;5033860;28;20033;-71
2023/01/25 14:29:15;;;;;;;6.40;5.00;;;;;;;;;;5024964;28;20045;-70
2023/01/25 14:31:42;;;;;;;13.03;5.50;;;;;;;;;;5032114;28;20033;-70
2023/01/25 14:34:15;;;;;;;7.77;5.07;;;;;;;;;;5033237;28;20040;-71
2023/01/25 14:36:41;;;;;;;5.47;4.20;;;;;;;;;;5033519;28;20033;-71
2023/01/25 14:39:23;;;;;;;7.70;4.72;;;;;;;;;;5033450;28;20464;-71
2023/01/25 14:41:52;;;;;;;5.60;4.50;;;;;;;;;;5033113;28;20105;-71
2023/01/25 14:44:19;;;;;;;6.80;4.17;;;;;;;;;;5032866;28;20549;-71
2023/01/25 14:46:45;;;;;;;6.43;4.53;;;;;;;;;;5032522;28;20535;-71
2023/01/25 14:49:14;;;;;;;12.20;5.07;;;;;;;;;;5032786;28;20037;-71
2023/01/25 14:51:42;;;;;;;7.53;5.27;;;;;;;;;;5033047;28;20041;-71
2023/01/25 14:54:18;;;;;;;8.03;5.60;;;;;;;;;;5032958;28;20033;-71
2023/01/25 14:56:46;;;;;;;6.10;4.20;;;;;;;;;;5030849;28;20048;-70